sensor_id;sensor_type;location;lat;lon;timestamp;P1;durP1;ratioP1;P2;durP2;ratioP2
13208;SDS011;6669;42.678;23.332;2022-12-07T00:01:54;9.67;;;6.13;;
13208;SDS011;6669;42.678;23.332;2022-12-07T00:04:22;10.63;;;6.90;;
13208;SDS011;6669;42.678;23.332;2022-12-07T00:06:51;11.27;;;6.87;;
13208;SDS011;6669;42.678;23.332;2022-12-07T00:09:20;12.93;;;6.90;;
13208;SDS011;6669;42.678;23.332;2022-12-07T00:11:50;9.90;;;6.27;;
13208;SDS011;6669;42.678;23.332;2022-12-07T00:14:19;10.43;;;6.77;;
13208;SDS011;6669;42.678;23.332;2022-12-07T00:16:48;10.00;;;6.50;;
13208;SDS011;6669;42.678;23.332;2022-12-07T00:19:17;10.23;;;6.57;;
13208;SDS011;6669;42.678;23.332;2022-12-07T00:21:45;9.20;;;6.53;;
13208;SDS011;6669;42.678;23.332;2022-12-07T00:24:13;11.67;;;7.87;;
13208;SDS011;6669;42.678;23.332;2022-12-07T00:26:41;9.70;;;6.30;;
13208;SDS011;6669;42.678;23.332;2022-12-07T00:29:13;13.47;;;7.60;;
13208;SDS011;6669;42.678;23.332;2022-12-07T00:31:44;11.00;;;7.53;;
13208;SDS011;6669;42.678;23.332;2022-12-07T00:34:14;10.03;;;7.03;;
13208;SDS011;6669;42.678;23.332;2022-12-07T00:36:43;11.90;;;7.13;;
13208;SDS011;6669;42.678;23.332;2022-12-07T00:39:12;10.23;;;6.27;;
13208;SDS011;6669;42.678;23.332;2022-12-07T00:41:40;10.87;;;7.53;;
13208;SDS011;6669;42.678;23.332;2022-12-07T00:44:08;11.13;;;7.33;;
13208;SDS011;6669;42.678;23.332;2022-12-07T00:46:38;13.27;;;7.43;;
13208;SDS011;6669;42.678;23.332;2022-12-07T00:49:06;12.50;;;7.00;;
13208;SDS011;6669;42.678;23.332;2022-12-07T00:51:34;9.80;;;6.80;;
13208;SDS011;6669;42.678;23.332;2022-12-07T00:54:02;12.10;;;7.37;;
13208;SDS011;6669;42.678;23.332;2022-12-07T00:56:31;10.93;;;7.00;;
13208;SDS011;6669;42.678;23.332;2022-12-07T00:59:00;9.10;;;6.67;;
13208;SDS011;6669;42.678;23.332;2022-12-07T01:01:30;10.13;;;7.03;;
13208;SDS011;6669;42.678;23.332;2022-12-07T01:04:01;11.13;;;6.70;;
13208;SDS011;6669;42.678;23.332;2022-12-07T01:06:30;10.73;;;6.83;;
13208;SDS011;6669;42.678;23.332;2022-12-07T01:08:59;11.40;;;6.00;;
13208;SDS011;6669;42.678;23.332;2022-12-07T01:11:28;11.43;;;7.10;;
13208;SDS011;6669;42.678;23.332;2022-12-07T01:13:58;10.40;;;6.37;;
13208;SDS011;6669;42.678;23.332;2022-12-07T01:16:28;9.07;;;6.50;;
13208;SDS011;6669;42.678;23.332;2022-12-07T01:18:58;9.80;;;7.03;;
13208;SDS011;6669;42.678;23.332;2022-12-07T01:21:29;9.43;;;7.00;;
13208;SDS011;6669;42.678;23.332;2022-12-07T01:24:01;10.17;;;7.60;;
13208;SDS011;6669;42.678;23.332;2022-12-07T01:26:30;9.87;;;7.60;;
13208;SDS011;6669;42.678;23.332;2022-12-07T01:28:58;10.13;;;6.33;;
13208;SDS011;6669;42.678;23.332;2022-12-07T01:31:27;13.07;;;6.40;;
13208;SDS011;6669;42.678;23.332;2022-12-07T01:33:56;8.20;;;6.37;;
13208;SDS011;6669;42.678;23.332;2022-12-07T01:36:26;9.57;;;6.37;;
13208;SDS011;6669;42.678;23.332;2022-12-07T01:38:58;9.30;;;6.77;;
13208;SDS011;6669;42.678;23.332;2022-12-07T01:41:28;8.37;;;6.67;;
13208;SDS011;6669;42.678;23.332;2022-12-07T01:44:08;7.97;;;6.10;;
13208;SDS011;6669;42.678;23.332;2022-12-07T01:46:38;11.03;;;6.87;;
13208;SDS011;6669;42.678;23.332;2022-12-07T01:49:08;12.40;;;7.47;;
13208;SDS011;6669;42.678;23.332;2022-12-07T01:51:41;13.20;;;6.77;;
13208;SDS011;6669;42.678;23.332;2022-12-07T01:54:11;9.90;;;6.53;;
13208;SDS011;6669;42.678;23.332;2022-12-07T01:56:40;8.77;;;6.30;;
13208;SDS011;6669;42.678;23.332;2022-12-07T01:59:13;9.03;;;6.73;;
13208;SDS011;6669;42.678;23.332;2022-12-07T02:01:43;9.07;;;6.17;;
13208;SDS011;6669;42.678;23.332;2022-12-07T02:04:11;12.57;;;6.57;;
13208;SDS011;6669;42.678;23.332;2022-12-07T02:06:41;8.63;;;6.60;;
13208;SDS011;6669;42.678;23.332;2022-12-07T02:09:12;12.90;;;6.97;;
13208;SDS011;6669;42.678;23.332;2022-12-07T02:11:41;12.30;;;6.43;;
13208;SDS011;6669;42.678;23.332;2022-12-07T02:14:09;12.97;;;7.17;;
13208;SDS011;6669;42.678;23.332;2022-12-07T02:16:38;10.70;;;7.30;;
13208;SDS011;6669;42.678;23.332;2022-12-07T02:19:24;10.73;;;7.40;;
13208;SDS011;6669;42.678;23.332;2022-12-07T02:22:18;9.33;;;6.70;;
13208;SDS011;6669;42.678;23.332;2022-12-07T02:25:02;11.10;;;6.50;;
13208;SDS011;6669;42.678;23.332;2022-12-07T02:27:38;9.30;;;6.00;;
13208;SDS011;6669;42.678;23.332;2022-12-07T02:30:14;14.70;;;7.63;;
13208;SDS011;6669;42.678;23.332;2022-12-07T02:32:48;10.57;;;6.93;;
13208;SDS011;6669;42.678;23.332;2022-12-07T02:35:22;11.80;;;7.07;;
13208;SDS011;6669;42.678;23.332;2022-12-07T02:37:58;9.80;;;6.63;;
13208;SDS011;6669;42.678;23.332;2022-12-07T02:40:33;10.17;;;6.50;;
13208;SDS011;6669;42.678;23.332;2022-12-07T02:43:06;11.97;;;6.37;;
13208;SDS011;6669;42.678;23.332;2022-12-07T02:45:39;13.20;;;7.20;;
13208;SDS011;6669;42.678;23.332;2022-12-07T02:48:10;9.20;;;6.10;;
13208;SDS011;6669;42.678;23.332;2022-12-07T02:50:43;11.13;;;6.63;;
13208;SDS011;6669;42.678;23.332;2022-12-07T02:55:59;12.00;;;7.03;;
13208;SDS011;6669;42.678;23.332;2022-12-07T02:58:36;12.80;;;6.77;;
13208;SDS011;6669;42.678;23.332;2022-12-07T03:01:16;9.20;;;6.67;;
13208;SDS011;6669;42.678;23.332;2022-12-07T03:03:55;9.77;;;6.90;;
13208;SDS011;6669;42.678;23.332;2022-12-07T03:06:36;10.13;;;6.90;;
13208;SDS011;6669;42.678;23.332;2022-12-07T03:09:11;10.17;;;6.47;;
13208;SDS011;6669;42.678;23.332;2022-12-07T03:11:43;12.27;;;7.80;;
13208;SDS011;6669;42.678;23.332;2022-12-07T03:14:17;11.53;;;7.13;;
13208;SDS011;6669;42.678;23.332;2022-12-07T03:16:52;11.60;;;7.13;;
13208;SDS011;6669;42.678;23.332;2022-12-07T03:19:26;11.93;;;6.33;;
13208;SDS011;6669;42.678;23.332;2022-12-07T03:21:55;13.27;;;7.13;;
13208;SDS011;6669;42.678;23.332;2022-12-07T03:24:26;14.47;;;7.40;;
13208;SDS011;6669;42.678;23.332;2022-12-07T03:26:58;11.60;;;8.53;;
13208;SDS011;6669;42.678;23.332;2022-12-07T03:29:32;12.80;;;7.80;;
13208;SDS011;6669;42.678;23.332;2022-12-07T03:32:06;12.10;;;8.00;;
13208;SDS011;6669;42.678;23.332;2022-12-07T03:34:40;10.57;;;7.73;;
13208;SDS011;6669;42.678;23.332;2022-12-07T03:37:15;12.10;;;7.73;;
13208;SDS011;6669;42.678;23.332;2022-12-07T03:40:02;12.37;;;7.53;;
13208;SDS011;6669;42.678;23.332;2022-12-07T03:42:35;11.13;;;6.83;;
13208;SDS011;6669;42.678;23.332;2022-12-07T03:45:04;13.17;;;7.07;;
13208;SDS011;6669;42.678;23.332;2022-12-07T03:47:37;10.00;;;6.93;;
13208;SDS011;6669;42.678;23.332;2022-12-07T03:50:14;10.50;;;7.13;;
13208;SDS011;6669;42.678;23.332;2022-12-07T03:52:51;11.57;;;7.43;;
13208;SDS011;6669;42.678;23.332;2022-12-07T03:55:22;10.60;;;7.13;;
13208;SDS011;6669;42.678;23.332;2022-12-07T03:57:55;12.80;;;7.80;;
13208;SDS011;6669;42.678;23.332;2022-12-07T04:00:27;11.80;;;8.00;;
13208;SDS011;6669;42.678;23.332;2022-12-07T04:02:57;14.00;;;7.50;;
13208;SDS011;6669;42.678;23.332;2022-12-07T04:05:25;10.53;;;7.57;;
13208;SDS011;6669;42.678;23.332;2022-12-07T04:07:54;11.47;;;7.13;;
13208;SDS011;6669;42.678;23.332;2022-12-07T04:10:22;11.67;;;7.37;;
13208;SDS011;6669;42.678;23.332;2022-12-07T04:12:50;12.70;;;8.00;;
13208;SDS011;6669;42.678;23.332;2022-12-07T04:15:18;12.47;;;7.83;;
13208;SDS011;6669;42.678;23.332;2022-12-07T04:17:46;10.63;;;7.77;;
13208;SDS011;6669;42.678;23.332;2022-12-07T04:20:15;13.40;;;7.80;;
13208;SDS011;6669;42.678;23.332;2022-12-07T04:22:43;12.57;;;8.30;;
13208;SDS011;6669;42.678;23.332;2022-12-07T04:25:12;9.97;;;7.13;;
13208;SDS011;6669;42.678;23.332;2022-12-07T04:27:40;11.77;;;7.97;;
13208;SDS011;6669;42.678;23.332;2022-12-07T04:30:08;9.67;;;6.90;;
13208;SDS011;6669;42.678;23.332;2022-12-07T04:32:36;14.27;;;9.07;;
13208;SDS011;6669;42.678;23.332;2022-12-07T04:35:04;12.70;;;7.63;;
13208;SDS011;6669;42.678;23.332;2022-12-07T04:37:34;12.03;;;7.80;;
13208;SDS011;6669;42.678;23.332;2022-12-07T04:40:02;11.57;;;7.50;;
13208;SDS011;6669;42.678;23.332;2022-12-07T04:42:31;11.40;;;7.87;;
13208;SDS011;6669;42.678;23.332;2022-12-07T04:44:59;14.23;;;7.30;;
13208;SDS011;6669;42.678;23.332;2022-12-07T04:47:27;13.07;;;7.60;;
13208;SDS011;6669;42.678;23.332;2022-12-07T04:49:55;10.90;;;8.33;;
13208;SDS011;6669;42.678;23.332;2022-12-07T04:52:23;12.30;;;7.30;;
13208;SDS011;6669;42.678;23.332;2022-12-07T04:54:53;12.67;;;7.80;;
13208;SDS011;6669;42.678;23.332;2022-12-07T04:57:20;11.33;;;7.87;;
13208;SDS011;6669;42.678;23.332;2022-12-07T04:59:48;11.83;;;7.37;;
13208;SDS011;6669;42.678;23.332;2022-12-07T05:02:16;13.43;;;8.07;;
13208;SDS011;6669;42.678;23.332;2022-12-07T05:04:44;12.03;;;7.53;;
13208;SDS011;6669;42.678;23.332;2022-12-07T05:07:12;11.17;;;8.10;;
13208;SDS011;6669;42.678;23.332;2022-12-07T05:09:40;13.03;;;7.93;;
13208;SDS011;6669;42.678;23.332;2022-12-07T05:12:10;13.70;;;8.37;;
13208;SDS011;6669;42.678;23.332;2022-12-07T05:14:39;15.07;;;8.27;;
13208;SDS011;6669;42.678;23.332;2022-12-07T05:17:10;12.20;;;6.87;;
13208;SDS011;6669;42.678;23.332;2022-12-07T05:19:38;11.60;;;7.67;;
13208;SDS011;6669;42.678;23.332;2022-12-07T05:22:06;12.50;;;8.43;;
13208;SDS011;6669;42.678;23.332;2022-12-07T05:24:34;11.53;;;7.67;;
13208;SDS011;6669;42.678;23.332;2022-12-07T05:27:02;10.90;;;7.43;;
13208;SDS011;6669;42.678;23.332;2022-12-07T05:29:32;13.70;;;8.07;;
13208;SDS011;6669;42.678;23.332;2022-12-07T05:32:00;14.80;;;8.00;;
13208;SDS011;6669;42.678;23.332;2022-12-07T05:34:28;14.70;;;8.23;;
13208;SDS011;6669;42.678;23.332;2022-12-07T05:36:56;12.60;;;8.13;;
13208;SDS011;6669;42.678;23.332;2022-12-07T05:39:24;15.17;;;8.57;;
13208;SDS011;6669;42.678;23.332;2022-12-07T05:41:52;11.20;;;7.80;;
13208;SDS011;6669;42.678;23.332;2022-12-07T05:44:39;9.40;;;6.60;;
13208;SDS011;6669;42.678;23.332;2022-12-07T05:47:07;11.57;;;8.13;;
13208;SDS011;6669;42.678;23.332;2022-12-07T05:49:35;11.37;;;7.60;;
13208;SDS011;6669;42.678;23.332;2022-12-07T05:52:03;12.70;;;7.93;;
13208;SDS011;6669;42.678;23.332;2022-12-07T05:54:32;12.40;;;8.17;;
13208;SDS011;6669;42.678;23.332;2022-12-07T05:57:00;18.63;;;8.57;;
13208;SDS011;6669;42.678;23.332;2022-12-07T05:59:28;13.57;;;8.83;;
13208;SDS011;6669;42.678;23.332;2022-12-07T06:01:58;13.63;;;8.03;;
13208;SDS011;6669;42.678;23.332;2022-12-07T06:04:32;13.87;;;8.17;;
13208;SDS011;6669;42.678;23.332;2022-12-07T06:07:02;14.80;;;7.97;;
13208;SDS011;6669;42.678;23.332;2022-12-07T06:09:31;12.70;;;8.13;;
13208;SDS011;6669;42.678;23.332;2022-12-07T06:12:01;14.90;;;7.97;;
13208;SDS011;6669;42.678;23.332;2022-12-07T06:14:47;11.90;;;7.70;;
13208;SDS011;6669;42.678;23.332;2022-12-07T06:17:18;13.10;;;8.07;;
13208;SDS011;6669;42.678;23.332;2022-12-07T06:19:46;10.27;;;7.17;;
13208;SDS011;6669;42.678;23.332;2022-12-07T06:22:15;11.37;;;7.93;;
13208;SDS011;6669;42.678;23.332;2022-12-07T06:24:44;14.00;;;7.77;;
13208;SDS011;6669;42.678;23.332;2022-12-07T06:27:13;11.70;;;7.57;;
13208;SDS011;6669;42.678;23.332;2022-12-07T06:29:43;18.17;;;8.27;;
13208;SDS011;6669;42.678;23.332;2022-12-07T06:32:13;13.33;;;8.80;;
13208;SDS011;6669;42.678;23.332;2022-12-07T06:34:43;10.53;;;7.40;;
13208;SDS011;6669;42.678;23.332;2022-12-07T06:37:18;13.87;;;8.40;;
13208;SDS011;6669;42.678;23.332;2022-12-07T06:39:46;17.80;;;9.10;;
13208;SDS011;6669;42.678;23.332;2022-12-07T06:42:15;12.60;;;8.37;;
13208;SDS011;6669;42.678;23.332;2022-12-07T06:44:43;13.43;;;8.17;;
13208;SDS011;6669;42.678;23.332;2022-12-07T06:47:12;12.50;;;8.53;;
13208;SDS011;6669;42.678;23.332;2022-12-07T06:50:04;13.47;;;8.07;;
13208;SDS011;6669;42.678;23.332;2022-12-07T06:52:34;39.03;;;22.07;;
13208;SDS011;6669;42.678;23.332;2022-12-07T06:55:02;40.40;;;21.70;;
13208;SDS011;6669;42.678;23.332;2022-12-07T06:57:31;20.40;;;12.57;;
13208;SDS011;6669;42.678;23.332;2022-12-07T06:59:59;50.07;;;23.73;;
13208;SDS011;6669;42.678;23.332;2022-12-07T07:02:30;22.73;;;12.73;;
13208;SDS011;6669;42.678;23.332;2022-12-07T07:04:59;63.47;;;25.83;;
13208;SDS011;6669;42.678;23.332;2022-12-07T07:07:29;21.73;;;11.77;;
13208;SDS011;6669;42.678;23.332;2022-12-07T07:10:17;17.97;;;10.87;;
13208;SDS011;6669;42.678;23.332;2022-12-07T07:12:45;16.37;;;9.40;;
13208;SDS011;6669;42.678;23.332;2022-12-07T07:15:21;12.57;;;7.97;;
13208;SDS011;6669;42.678;23.332;2022-12-07T07:17:50;13.40;;;8.97;;
13208;SDS011;6669;42.678;23.332;2022-12-07T07:20:18;16.70;;;10.53;;
13208;SDS011;6669;42.678;23.332;2022-12-07T07:22:49;12.77;;;8.40;;
13208;SDS011;6669;42.678;23.332;2022-12-07T07:25:18;12.83;;;8.33;;
13208;SDS011;6669;42.678;23.332;2022-12-07T07:27:46;16.00;;;11.10;;
13208;SDS011;6669;42.678;23.332;2022-12-07T07:30:14;24.70;;;15.10;;
13208;SDS011;6669;42.678;23.332;2022-12-07T07:32:43;22.07;;;12.80;;
13208;SDS011;6669;42.678;23.332;2022-12-07T07:35:11;19.90;;;12.67;;
13208;SDS011;6669;42.678;23.332;2022-12-07T07:37:40;14.40;;;8.53;;
13208;SDS011;6669;42.678;23.332;2022-12-07T07:40:10;17.57;;;8.70;;
13208;SDS011;6669;42.678;23.332;2022-12-07T07:42:38;13.60;;;7.77;;
13208;SDS011;6669;42.678;23.332;2022-12-07T07:45:07;12.70;;;8.03;;
13208;SDS011;6669;42.678;23.332;2022-12-07T07:47:38;13.17;;;8.53;;
13208;SDS011;6669;42.678;23.332;2022-12-07T07:50:08;14.13;;;8.20;;
13208;SDS011;6669;42.678;23.332;2022-12-07T07:52:37;10.37;;;7.63;;
13208;SDS011;6669;42.678;23.332;2022-12-07T07:55:05;14.23;;;8.00;;
13208;SDS011;6669;42.678;23.332;2022-12-07T07:57:36;19.60;;;12.43;;
13208;SDS011;6669;42.678;23.332;2022-12-07T08:00:06;15.47;;;9.87;;
13208;SDS011;6669;42.678;23.332;2022-12-07T08:02:36;14.90;;;8.27;;
13208;SDS011;6669;42.678;23.332;2022-12-07T08:05:04;13.30;;;8.17;;
13208;SDS011;6669;42.678;23.332;2022-12-07T08:07:33;14.37;;;9.13;;
13208;SDS011;6669;42.678;23.332;2022-12-07T08:10:01;13.10;;;8.00;;
13208;SDS011;6669;42.678;23.332;2022-12-07T08:12:37;12.37;;;8.07;;
13208;SDS011;6669;42.678;23.332;2022-12-07T08:15:26;12.73;;;8.23;;
13208;SDS011;6669;42.678;23.332;2022-12-07T08:17:56;13.77;;;8.63;;
13208;SDS011;6669;42.678;23.332;2022-12-07T08:20:24;14.67;;;9.53;;
13208;SDS011;6669;42.678;23.332;2022-12-07T08:22:53;22.23;;;12.03;;
13208;SDS011;6669;42.678;23.332;2022-12-07T08:25:21;17.23;;;10.37;;
13208;SDS011;6669;42.678;23.332;2022-12-07T08:27:57;15.10;;;9.50;;
13208;SDS011;6669;42.678;23.332;2022-12-07T08:30:27;14.57;;;9.80;;
13208;SDS011;6669;42.678;23.332;2022-12-07T08:32:56;15.77;;;10.23;;
13208;SDS011;6669;42.678;23.332;2022-12-07T08:35:24;14.83;;;10.53;;
13208;SDS011;6669;42.678;23.332;2022-12-07T08:37:52;13.57;;;9.40;;
13208;SDS011;6669;42.678;23.332;2022-12-07T08:40:20;12.97;;;9.20;;
13208;SDS011;6669;42.678;23.332;2022-12-07T08:42:48;14.87;;;9.83;;
13208;SDS011;6669;42.678;23.332;2022-12-07T08:45:19;15.50;;;8.87;;
13208;SDS011;6669;42.678;23.332;2022-12-07T08:47:53;14.07;;;9.10;;
13208;SDS011;6669;42.678;23.332;2022-12-07T08:50:25;14.97;;;10.10;;
13208;SDS011;6669;42.678;23.332;2022-12-07T08:52:54;14.47;;;9.73;;
13208;SDS011;6669;42.678;23.332;2022-12-07T08:55:24;15.37;;;10.20;;
13208;SDS011;6669;42.678;23.332;2022-12-07T08:57:53;16.37;;;9.10;;
13208;SDS011;6669;42.678;23.332;2022-12-07T09:00:23;14.17;;;9.13;;
13208;SDS011;6669;42.678;23.332;2022-12-07T09:02:52;18.53;;;8.87;;
13208;SDS011;6669;42.678;23.332;2022-12-07T09:05:21;16.10;;;9.00;;
13208;SDS011;6669;42.678;23.332;2022-12-07T09:07:50;13.50;;;9.00;;
13208;SDS011;6669;42.678;23.332;2022-12-07T09:10:22;14.47;;;8.17;;
13208;SDS011;6669;42.678;23.332;2022-12-07T09:12:50;15.23;;;9.23;;
13208;SDS011;6669;42.678;23.332;2022-12-07T09:15:18;17.60;;;9.33;;
13208;SDS011;6669;42.678;23.332;2022-12-07T09:17:49;13.83;;;9.00;;
13208;SDS011;6669;42.678;23.332;2022-12-07T09:20:17;13.37;;;8.43;;
13208;SDS011;6669;42.678;23.332;2022-12-07T09:22:52;16.07;;;9.13;;
13208;SDS011;6669;42.678;23.332;2022-12-07T09:25:20;16.30;;;9.50;;
13208;SDS011;6669;42.678;23.332;2022-12-07T09:27:52;16.43;;;10.20;;
13208;SDS011;6669;42.678;23.332;2022-12-07T09:30:23;19.87;;;10.70;;
13208;SDS011;6669;42.678;23.332;2022-12-07T09:32:54;15.63;;;9.30;;
13208;SDS011;6669;42.678;23.332;2022-12-07T09:35:23;15.03;;;9.47;;
13208;SDS011;6669;42.678;23.332;2022-12-07T09:37:56;17.43;;;10.00;;
13208;SDS011;6669;42.678;23.332;2022-12-07T09:40:24;22.13;;;10.03;;
13208;SDS011;6669;42.678;23.332;2022-12-07T09:42:52;13.70;;;9.23;;
13208;SDS011;6669;42.678;23.332;2022-12-07T09:45:23;17.97;;;10.50;;
13208;SDS011;6669;42.678;23.332;2022-12-07T09:47:54;15.63;;;9.37;;
13208;SDS011;6669;42.678;23.332;2022-12-07T09:50:23;15.37;;;10.27;;
13208;SDS011;6669;42.678;23.332;2022-12-07T09:52:53;16.83;;;10.13;;
13208;SDS011;6669;42.678;23.332;2022-12-07T09:55:33;15.10;;;9.97;;
13208;SDS011;6669;42.678;23.332;2022-12-07T09:58:03;17.97;;;10.90;;
13208;SDS011;6669;42.678;23.332;2022-12-07T10:00:31;15.67;;;10.70;;
13208;SDS011;6669;42.678;23.332;2022-12-07T10:03:02;15.30;;;10.53;;
13208;SDS011;6669;42.678;23.332;2022-12-07T10:05:30;16.63;;;10.90;;
13208;SDS011;6669;42.678;23.332;2022-12-07T10:08:03;19.27;;;11.57;;
13208;SDS011;6669;42.678;23.332;2022-12-07T10:10:33;21.30;;;11.27;;
13208;SDS011;6669;42.678;23.332;2022-12-07T10:13:05;15.83;;;10.50;;
13208;SDS011;6669;42.678;23.332;2022-12-07T10:15:42;17.07;;;10.57;;
13208;SDS011;6669;42.678;23.332;2022-12-07T10:18:20;18.73;;;11.20;;
13208;SDS011;6669;42.678;23.332;2022-12-07T10:21:05;13.43;;;9.87;;
13208;SDS011;6669;42.678;23.332;2022-12-07T10:23:40;18.40;;;11.37;;
13208;SDS011;6669;42.678;23.332;2022-12-07T10:28:59;20.60;;;12.77;;
13208;SDS011;6669;42.678;23.332;2022-12-07T10:31:28;18.90;;;11.97;;
13208;SDS011;6669;42.678;23.332;2022-12-07T10:34:00;15.77;;;11.00;;
13208;SDS011;6669;42.678;23.332;2022-12-07T10:36:34;13.13;;;9.27;;
13208;SDS011;6669;42.678;23.332;2022-12-07T10:39:10;13.27;;;9.00;;
13208;SDS011;6669;42.678;23.332;2022-12-07T10:41:52;11.40;;;8.70;;
13208;SDS011;6669;42.678;23.332;2022-12-07T10:44:23;16.27;;;9.63;;
13208;SDS011;6669;42.678;23.332;2022-12-07T10:47:12;12.20;;;8.43;;
13208;SDS011;6669;42.678;23.332;2022-12-07T10:50:01;12.77;;;8.67;;
13208;SDS011;6669;42.678;23.332;2022-12-07T10:53:10;16.83;;;9.23;;
13208;SDS011;6669;42.678;23.332;2022-12-07T10:55:54;15.23;;;9.20;;
13208;SDS011;6669;42.678;23.332;2022-12-07T10:58:40;15.53;;;9.37;;
13208;SDS011;6669;42.678;23.332;2022-12-07T11:01:22;16.23;;;9.53;;
13208;SDS011;6669;42.678;23.332;2022-12-07T11:04:06;16.77;;;9.97;;
13208;SDS011;6669;42.678;23.332;2022-12-07T11:06:47;16.93;;;10.20;;
13208;SDS011;6669;42.678;23.332;2022-12-07T11:09:27;14.87;;;9.30;;
13208;SDS011;6669;42.678;23.332;2022-12-07T11:12:41;15.83;;;9.67;;
13208;SDS011;6669;42.678;23.332;2022-12-07T11:15:19;19.77;;;10.33;;
13208;SDS011;6669;42.678;23.332;2022-12-07T11:17:53;31.27;;;20.90;;
13208;SDS011;6669;42.678;23.332;2022-12-07T11:20:35;19.93;;;14.47;;
13208;SDS011;6669;42.678;23.332;2022-12-07T11:23:13;13.57;;;9.10;;
13208;SDS011;6669;42.678;23.332;2022-12-07T11:25:49;13.70;;;8.73;;
13208;SDS011;6669;42.678;23.332;2022-12-07T11:28:30;16.50;;;8.50;;
13208;SDS011;6669;42.678;23.332;2022-12-07T11:31:12;14.13;;;8.88;;
13208;SDS011;6669;42.678;23.332;2022-12-07T11:33:56;11.27;;;7.72;;
13208;SDS011;6669;42.678;23.332;2022-12-07T11:36:33;16.48;;;8.75;;
13208;SDS011;6669;42.678;23.332;2022-12-07T11:39:19;13.55;;;8.13;;
13208;SDS011;6669;42.678;23.332;2022-12-07T11:41:55;12.50;;;8.00;;
13208;SDS011;6669;42.678;23.332;2022-12-07T11:44:30;13.32;;;8.05;;
13208;SDS011;6669;42.678;23.332;2022-12-07T11:47:06;12.90;;;7.60;;
13208;SDS011;6669;42.678;23.332;2022-12-07T11:49:40;13.68;;;7.85;;
13208;SDS011;6669;42.678;23.332;2022-12-07T11:52:15;14.95;;;8.18;;
13208;SDS011;6669;42.678;23.332;2022-12-07T11:54:51;14.68;;;8.30;;
13208;SDS011;6669;42.678;23.332;2022-12-07T11:57:24;12.27;;;7.80;;
13208;SDS011;6669;42.678;23.332;2022-12-07T12:00:01;10.63;;;7.78;;
13208;SDS011;6669;42.678;23.332;2022-12-07T12:02:43;11.77;;;7.55;;
13208;SDS011;6669;42.678;23.332;2022-12-07T12:05:17;11.82;;;8.00;;
13208;SDS011;6669;42.678;23.332;2022-12-07T12:07:48;10.20;;;7.50;;
13208;SDS011;6669;42.678;23.332;2022-12-07T12:10:45;12.32;;;7.30;;
13208;SDS011;6669;42.678;23.332;2022-12-07T12:13:27;10.10;;;6.88;;
13208;SDS011;6669;42.678;23.332;2022-12-07T12:16:44;10.93;;;7.18;;
13208;SDS011;6669;42.678;23.332;2022-12-07T12:19:25;11.95;;;6.68;;
13208;SDS011;6669;42.678;23.332;2022-12-07T12:22:03;8.75;;;6.28;;
13208;SDS011;6669;42.678;23.332;2022-12-07T12:24:39;11.80;;;7.93;;
13208;SDS011;6669;42.678;23.332;2022-12-07T12:27:18;10.43;;;6.80;;
13208;SDS011;6669;42.678;23.332;2022-12-07T12:29:51;9.23;;;6.38;;
13208;SDS011;6669;42.678;23.332;2022-12-07T12:32:23;9.40;;;6.05;;
13208;SDS011;6669;42.678;23.332;2022-12-07T12:37:55;11.35;;;6.90;;
13208;SDS011;6669;42.678;23.332;2022-12-07T12:40:43;10.40;;;6.13;;
13208;SDS011;6669;42.678;23.332;2022-12-07T12:49:30;8.20;;;5.90;;
13208;SDS011;6669;42.678;23.332;2022-12-07T12:55:18;9.77;;;5.97;;
13208;SDS011;6669;42.678;23.332;2022-12-07T13:04:14;9.30;;;5.68;;
13208;SDS011;6669;42.678;23.332;2022-12-07T13:06:48;8.70;;;5.50;;
13208;SDS011;6669;42.678;23.332;2022-12-07T13:09:18;9.07;;;5.30;;
13208;SDS011;6669;42.678;23.332;2022-12-07T13:11:49;9.48;;;5.95;;
13208;SDS011;6669;42.678;23.332;2022-12-07T13:14:39;7.32;;;5.32;;
13208;SDS011;6669;42.678;23.332;2022-12-07T13:23:26;6.85;;;5.00;;
13208;SDS011;6669;42.678;23.332;2022-12-07T13:26:12;9.68;;;5.45;;
13208;SDS011;6669;42.678;23.332;2022-12-07T13:28:44;7.88;;;5.35;;
13208;SDS011;6669;42.678;23.332;2022-12-07T13:31:18;7.70;;;5.25;;
13208;SDS011;6669;42.678;23.332;2022-12-07T13:34:04;7.93;;;5.50;;
13208;SDS011;6669;42.678;23.332;2022-12-07T13:36:53;8.52;;;5.97;;
13208;SDS011;6669;42.678;23.332;2022-12-07T13:39:23;7.30;;;5.82;;
13208;SDS011;6669;42.678;23.332;2022-12-07T13:41:53;7.85;;;5.07;;
13208;SDS011;6669;42.678;23.332;2022-12-07T13:44:23;9.93;;;5.45;;
13208;SDS011;6669;42.678;23.332;2022-12-07T13:46:57;8.07;;;5.32;;
13208;SDS011;6669;42.678;23.332;2022-12-07T13:49:32;7.93;;;5.35;;
13208;SDS011;6669;42.678;23.332;2022-12-07T13:52:14;7.38;;;5.50;;
13208;SDS011;6669;42.678;23.332;2022-12-07T13:54:45;9.45;;;5.72;;
13208;SDS011;6669;42.678;23.332;2022-12-07T13:57:16;7.88;;;5.85;;
13208;SDS011;6669;42.678;23.332;2022-12-07T13:59:44;9.98;;;6.18;;
13208;SDS011;6669;42.678;23.332;2022-12-07T14:02:18;18.98;;;7.55;;
13208;SDS011;6669;42.678;23.332;2022-12-07T14:04:50;10.98;;;6.18;;
13208;SDS011;6669;42.678;23.332;2022-12-07T14:07:23;9.13;;;6.18;;
13208;SDS011;6669;42.678;23.332;2022-12-07T14:10:22;14.38;;;8.10;;
13208;SDS011;6669;42.678;23.332;2022-12-07T14:12:52;9.18;;;6.10;;
13208;SDS011;6669;42.678;23.332;2022-12-07T14:15:23;8.65;;;6.47;;
13208;SDS011;6669;42.678;23.332;2022-12-07T14:17:55;10.32;;;6.00;;
13208;SDS011;6669;42.678;23.332;2022-12-07T14:20:31;8.98;;;5.72;;
13208;SDS011;6669;42.678;23.332;2022-12-07T14:23:02;10.27;;;6.13;;
13208;SDS011;6669;42.678;23.332;2022-12-07T14:25:44;30.38;;;11.70;;
13208;SDS011;6669;42.678;23.332;2022-12-07T14:28:25;30.63;;;12.38;;
13208;SDS011;6669;42.678;23.332;2022-12-07T14:30:54;22.38;;;9.88;;
13208;SDS011;6669;42.678;23.332;2022-12-07T14:33:22;11.65;;;6.60;;
13208;SDS011;6669;42.678;23.332;2022-12-07T14:35:51;8.38;;;6.30;;
13208;SDS011;6669;42.678;23.332;2022-12-07T14:38:25;10.02;;;7.05;;
13208;SDS011;6669;42.678;23.332;2022-12-07T14:40:54;9.60;;;6.20;;
13208;SDS011;6669;42.678;23.332;2022-12-07T14:43:44;11.60;;;6.63;;
13208;SDS011;6669;42.678;23.332;2022-12-07T14:46:34;9.80;;;6.80;;
13208;SDS011;6669;42.678;23.332;2022-12-07T14:49:03;8.93;;;7.43;;
13208;SDS011;6669;42.678;23.332;2022-12-07T14:51:51;9.75;;;6.82;;
13208;SDS011;6669;42.678;23.332;2022-12-07T14:54:41;10.63;;;5.63;;
13208;SDS011;6669;42.678;23.332;2022-12-07T14:57:11;8.45;;;6.00;;
13208;SDS011;6669;42.678;23.332;2022-12-07T14:59:39;16.08;;;6.70;;
13208;SDS011;6669;42.678;23.332;2022-12-07T15:02:11;11.43;;;6.50;;
13208;SDS011;6669;42.678;23.332;2022-12-07T15:04:40;10.43;;;7.00;;
13208;SDS011;6669;42.678;23.332;2022-12-07T15:07:10;10.18;;;6.32;;
13208;SDS011;6669;42.678;23.332;2022-12-07T15:09:45;13.70;;;8.35;;
13208;SDS011;6669;42.678;23.332;2022-12-07T15:12:13;11.85;;;7.80;;
13208;SDS011;6669;42.678;23.332;2022-12-07T15:14:41;13.07;;;7.50;;
13208;SDS011;6669;42.678;23.332;2022-12-07T15:17:10;10.98;;;6.90;;
13208;SDS011;6669;42.678;23.332;2022-12-07T15:19:56;12.70;;;7.33;;
13208;SDS011;6669;42.678;23.332;2022-12-07T15:22:25;9.88;;;6.72;;
13208;SDS011;6669;42.678;23.332;2022-12-07T15:24:54;12.80;;;6.53;;
13208;SDS011;6669;42.678;23.332;2022-12-07T15:27:23;11.27;;;8.20;;
13208;SDS011;6669;42.678;23.332;2022-12-07T15:29:51;18.07;;;11.43;;
13208;SDS011;6669;42.678;23.332;2022-12-07T15:32:20;12.90;;;8.47;;
13208;SDS011;6669;42.678;23.332;2022-12-07T15:34:49;13.55;;;7.70;;
13208;SDS011;6669;42.678;23.332;2022-12-07T15:37:17;12.18;;;7.45;;
13208;SDS011;6669;42.678;23.332;2022-12-07T15:39:46;13.60;;;7.27;;